Time;durP1;ratioP1;P1;durP2;ratioP2;P2;SDS_P1;SDS_P2;PMS_P1;PMS_P2;Temp;Humidity;BMP_temperature;BMP_pressure;BME280_temperature;BME280_humidity;BME280_pressure;Samples;Min_cycle;Max_cycle;Signal;HPM_P1;HPM_P2
2021/10/05 00:00:14;;;;;;;16.57;11.00;;;13.60;99.90;;;;;;5074645;28;20209;-66
2021/10/05 00:02:41;;;;;;;17.23;11.10;;;13.50;99.90;;;;;;5074493;28;20218;-64
2021/10/05 00:05:09;;;;;;;14.17;10.63;;;13.50;99.90;;;;;;5074744;28;20225;-66
2021/10/05 00:07:36;;;;;;;18.43;11.10;;;13.50;99.90;;;;;;5074137;28;20402;-64
2021/10/05 00:10:05;;;;;;;21.03;11.00;;;13.50;99.90;;;;;;5074901;28;20201;-65
2021/10/05 00:12:31;;;;;;;18.43;10.87;;;13.40;99.90;;;;;;5074313;28;20220;-64
2021/10/05 00:15:00;;;;;;;17.50;10.70;;;13.40;99.90;;;;;;5074165;28;20197;-65
2021/10/05 00:17:27;;;;;;;17.83;10.93;;;13.40;99.90;;;;;;5065472;28;20209;-63
2021/10/05 00:19:54;;;;;;;17.33;11.10;;;13.40;99.90;;;;;;5074293;28;20237;-64
2021/10/05 00:22:21;;;;;;;18.10;10.67;;;13.40;99.90;;;;;;5074369;28;20554;-65
2021/10/05 00:24:47;;;;;;;18.30;11.13;;;13.40;99.90;;;;;;5073717;28;20669;-64
2021/10/05 00:27:14;;;;;;;18.07;11.50;;;13.30;99.90;;;;;;5073875;28;20224;-65
2021/10/05 00:29:42;;;;;;;20.97;10.53;;;13.30;99.90;;;;;;5074162;28;20213;-65
2021/10/05 00:32:11;;;;;;;16.70;10.67;;;13.30;99.90;;;;;;5073306;28;20213;-65
2021/10/05 00:34:38;;;;;;;16.77;10.60;;;13.30;99.90;;;;;;5072450;28;20699;-64
2021/10/05 00:37:05;;;;;;;15.63;10.87;;;13.20;99.90;;;;;;5073060;28;20237;-65
2021/10/05 00:39:32;;;;;;;19.60;12.03;;;13.20;99.90;;;;;;5073558;28;20220;-65
2021/10/05 00:41:59;;;;;;;16.73;11.17;;;13.20;99.90;;;;;;5073961;28;20209;-66
2021/10/05 00:44:30;;;;;;;18.70;12.00;;;13.20;99.90;;;;;;5073479;28;20561;-65
2021/10/05 00:47:00;;;;;;;21.73;11.53;;;13.20;99.90;;;;;;5073406;28;20220;-66
2021/10/05 00:49:29;;;;;;;18.30;11.20;;;13.10;99.90;;;;;;5073757;28;20284;-64
2021/10/05 00:51:56;;;;;;;20.73;11.43;;;13.20;99.90;;;;;;5073621;28;20288;-65
2021/10/05 00:54:23;;;;;;;21.17;12.00;;;13.10;99.90;;;;;;5073565;28;20638;-65
2021/10/05 00:56:50;;;;;;;17.03;11.20;;;13.10;99.90;;;;;;5073829;28;20559;-65
2021/10/05 00:59:17;;;;;;;17.97;11.13;;;13.10;99.90;;;;;;5073145;28;20587;-65
2021/10/05 01:01:44;;;;;;;17.60;11.57;;;13.00;99.90;;;;;;5073193;28;20209;-64
2021/10/05 01:04:11;;;;;;;19.83;11.47;;;13.00;99.90;;;;;;5072836;28;20229;-65
2021/10/05 01:06:46;;;;;;;16.03;10.33;;;13.00;99.90;;;;;;5073276;28;20211;-64
2021/10/05 01:09:14;;;;;;;18.80;12.63;;;13.00;99.90;;;;;;5073184;28;20583;-65
2021/10/05 01:11:40;;;;;;;15.73;10.33;;;13.00;99.90;;;;;;5073555;28;20288;-65
2021/10/05 01:14:07;;;;;;;21.00;11.23;;;13.00;99.90;;;;;;5073296;28;20208;-65
2021/10/05 01:16:34;;;;;;;18.63;11.87;;;13.00;99.90;;;;;;5072551;28;20205;-65
2021/10/05 01:19:01;;;;;;;17.77;10.90;;;12.90;99.90;;;;;;5073013;28;20215;-66
2021/10/05 01:21:29;;;;;;;17.07;10.83;;;12.90;99.90;;;;;;5073227;28;20224;-65
2021/10/05 01:24:04;;;;;;;19.30;11.33;;;12.90;99.90;;;;;;5072657;28;20328;-65
2021/10/05 01:26:31;;;;;;;16.97;11.20;;;12.90;99.90;;;;;;5073023;28;20207;-64
2021/10/05 01:29:02;;;;;;;18.37;11.37;;;12.90;99.90;;;;;;5072609;28;20198;-65
2021/10/05 01:31:29;;;;;;;17.33;11.07;;;12.80;99.90;;;;;;5072740;28;20205;-65
2021/10/05 01:33:57;;;;;;;20.37;11.67;;;12.80;99.90;;;;;;5072418;28;20233;-64
2021/10/05 01:36:24;;;;;;;20.23;11.43;;;12.80;99.90;;;;;;5071982;28;20220;-65
2021/10/05 01:38:52;;;;;;;16.10;11.60;;;12.80;99.90;;;;;;5072274;28;20206;-65
2021/10/05 01:41:19;;;;;;;18.90;11.17;;;12.80;99.90;;;;;;5072771;28;20209;-65
2021/10/05 01:43:46;;;;;;;15.53;10.80;;;12.70;99.90;;;;;;5072354;28;20205;-64
2021/10/05 01:46:13;;;;;;;20.63;12.30;;;12.70;99.90;;;;;;5071394;28;20211;-64
2021/10/05 01:48:40;;;;;;;17.27;10.30;;;12.70;99.90;;;;;;5072323;28;20237;-64
2021/10/05 01:51:08;;;;;;;19.93;10.80;;;12.60;99.90;;;;;;5071875;28;20205;-64
2021/10/05 01:53:35;;;;;;;16.23;11.13;;;12.70;99.90;;;;;;5072494;28;20209;-65
2021/10/05 01:56:04;;;;;;;20.77;11.00;;;12.60;99.90;;;;;;5071831;28;20662;-64
2021/10/05 01:58:31;;;;;;;16.47;11.70;;;12.60;99.90;;;;;;5072146;28;20710;-64
2021/10/05 02:00:59;;;;;;;17.17;11.07;;;12.50;99.90;;;;;;5071912;28;20209;-64
2021/10/05 02:03:26;;;;;;;18.50;11.77;;;12.50;99.90;;;;;;5071976;28;20300;-64
2021/10/05 02:05:53;;;;;;;19.70;11.80;;;12.50;99.90;;;;;;5072038;28;20237;-66
2021/10/05 02:08:20;;;;;;;17.37;10.97;;;12.50;99.90;;;;;;5071595;28;20232;-66
2021/10/05 02:10:46;;;;;;;17.77;12.23;;;12.50;99.90;;;;;;5072024;28;20208;-65
2021/10/05 02:13:15;;;;;;;19.33;11.40;;;12.40;99.90;;;;;;5071936;28;20205;-65
2021/10/05 02:15:42;;;;;;;18.83;11.20;;;12.40;99.90;;;;;;5071927;28;20619;-63
2021/10/05 02:18:08;;;;;;;20.00;11.47;;;12.40;99.90;;;;;;5071635;28;20571;-64
2021/10/05 02:20:35;;;;;;;19.43;11.83;;;12.40;99.90;;;;;;5071741;28;20231;-64
2021/10/05 02:23:02;;;;;;;19.00;11.50;;;12.40;99.90;;;;;;5071901;28;20308;-65
2021/10/05 02:25:29;;;;;;;15.63;10.67;;;12.30;99.90;;;;;;5071089;28;20221;-64
2021/10/05 02:27:56;;;;;;;18.03;11.87;;;12.30;99.90;;;;;;5071515;28;20670;-64
2021/10/05 02:30:24;;;;;;;22.07;11.63;;;12.30;99.90;;;;;;5057091;28;20209;-64
2021/10/05 02:32:51;;;;;;;19.80;11.63;;;12.30;99.90;;;;;;5071831;28;20293;-65
2021/10/05 02:35:19;;;;;;;18.07;11.07;;;12.30;99.90;;;;;;5069866;28;20576;-64
2021/10/05 02:37:46;;;;;;;17.47;10.77;;;12.30;99.90;;;;;;5071091;28;20547;-64
2021/10/05 02:40:14;;;;;;;16.80;11.10;;;12.20;99.90;;;;;;5071497;28;20571;-64
2021/10/05 02:42:41;;;;;;;16.83;10.67;;;12.20;99.90;;;;;;5071263;28;20216;-65
2021/10/05 02:45:09;;;;;;;20.43;11.27;;;12.20;99.90;;;;;;5071277;28;20253;-64
2021/10/05 02:47:37;;;;;;;19.33;11.47;;;12.20;99.90;;;;;;5071574;28;20213;-63
2021/10/05 02:50:05;;;;;;;17.43;11.53;;;12.20;99.90;;;;;;5071550;28;20220;-64
2021/10/05 02:52:32;;;;;;;18.27;11.27;;;12.10;99.90;;;;;;5071333;28;20589;-64
2021/10/05 02:54:58;;;;;;;16.77;11.17;;;12.10;99.90;;;;;;5071040;28;20223;-65
2021/10/05 02:57:25;;;;;;;18.17;10.53;;;12.10;99.90;;;;;;5070856;28;20558;-64
2021/10/05 02:59:52;;;;;;;16.30;10.60;;;12.10;99.90;;;;;;5069325;28;20205;-64
2021/10/05 03:02:19;;;;;;;16.60;10.90;;;12.10;99.90;;;;;;5070913;28;20565;-64
2021/10/05 03:04:47;;;;;;;18.90;11.37;;;12.10;99.90;;;;;;5071188;28;20627;-65
2021/10/05 03:07:14;;;;;;;16.30;10.03;;;12.10;99.90;;;;;;5071061;28;20220;-64
2021/10/05 03:09:41;;;;;;;17.07;11.33;;;12.10;99.90;;;;;;5070113;28;20205;-65
2021/10/05 03:12:08;;;;;;;18.50;11.33;;;12.10;99.90;;;;;;5070958;28;20638;-65
2021/10/05 03:14:35;;;;;;;20.63;11.33;;;12.10;99.90;;;;;;5071139;28;20201;-64
2021/10/05 03:17:02;;;;;;;21.27;10.73;;;12.10;99.90;;;;;;5070275;28;20213;-64
2021/10/05 03:19:28;;;;;;;19.60;10.67;;;12.00;99.90;;;;;;5070761;28;20204;-65
2021/10/05 03:21:57;;;;;;;18.87;10.73;;;12.00;99.90;;;;;;5070689;28;20555;-64
2021/10/05 03:24:24;;;;;;;18.03;10.90;;;12.10;99.90;;;;;;5071070;28;20560;-64
2021/10/05 03:26:51;;;;;;;17.83;11.10;;;12.00;99.90;;;;;;5071019;28;20212;-63
2021/10/05 03:29:18;;;;;;;18.03;10.73;;;12.10;99.90;;;;;;5071129;28;20570;-64
2021/10/05 03:31:45;;;;;;;17.80;10.30;;;12.00;99.90;;;;;;5070232;28;20220;-65
2021/10/05 03:34:12;;;;;;;17.13;10.87;;;12.00;99.90;;;;;;5070227;28;20239;-64
2021/10/05 03:36:39;;;;;;;15.90;10.33;;;12.00;99.90;;;;;;5069731;28;20791;-64
2021/10/05 03:39:07;;;;;;;16.63;10.87;;;12.00;99.90;;;;;;5070490;28;20219;-63
2021/10/05 03:41:34;;;;;;;16.33;10.40;;;12.00;99.90;;;;;;5071154;28;20260;-63
2021/10/05 03:44:01;;;;;;;18.13;11.03;;;12.00;99.90;;;;;;5060013;28;20201;-63
2021/10/05 03:46:28;;;;;;;19.63;10.47;;;12.00;99.90;;;;;;5070346;28;20225;-64
2021/10/05 03:48:54;;;;;;;21.20;10.77;;;12.00;99.90;;;;;;5070523;28;20205;-64
2021/10/05 03:51:21;;;;;;;15.43;9.60;;;11.90;99.90;;;;;;5070009;28;20205;-64
2021/10/05 03:53:48;;;;;;;16.87;10.83;;;11.90;99.90;;;;;;5070193;28;20201;-64
2021/10/05 03:56:16;;;;;;;21.30;10.57;;;11.90;99.90;;;;;;5070638;28;20202;-64
2021/10/05 03:58:43;;;;;;;18.63;11.03;;;11.90;99.90;;;;;;5070812;28;20211;-64
2021/10/05 04:01:10;;;;;;;17.07;10.30;;;11.90;99.90;;;;;;5070822;28;20212;-65
2021/10/05 04:03:38;;;;;;;15.70;10.47;;;11.90;99.90;;;;;;5071189;28;20646;-64
2021/10/05 04:06:05;;;;;;;20.07;10.50;;;11.90;99.90;;;;;;5070043;28;20217;-64
2021/10/05 04:08:32;;;;;;;16.67;10.23;;;11.90;99.90;;;;;;5070593;28;20214;-63
2021/10/05 04:10:59;;;;;;;16.37;10.33;;;11.90;99.90;;;;;;5074216;28;20286;-64
2021/10/05 04:13:27;;;;;;;12.07;9.70;;;11.90;99.90;;;;;;5074527;28;20661;-64
2021/10/05 04:15:54;;;;;;;14.60;10.57;;;11.90;99.90;;;;;;5074527;28;20284;-64
2021/10/05 04:18:21;;;;;;;17.77;10.07;;;11.90;99.90;;;;;;5074129;28;20208;-64
2021/10/05 04:20:48;;;;;;;19.30;10.87;;;11.80;99.90;;;;;;5074134;28;20205;-63
2021/10/05 04:23:15;;;;;;;13.40;9.80;;;11.90;99.90;;;;;;5073917;28;20205;-65
2021/10/05 04:25:42;;;;;;;18.33;10.67;;;11.90;99.90;;;;;;5073977;28;20233;-64
2021/10/05 04:28:09;;;;;;;19.17;10.37;;;11.80;99.90;;;;;;5073922;28;20638;-64
2021/10/05 04:30:37;;;;;;;16.83;9.87;;;11.90;99.90;;;;;;5073836;28;20650;-65
2021/10/05 04:33:04;;;;;;;15.93;9.93;;;11.90;99.90;;;;;;5073506;28;20205;-64
2021/10/05 04:35:31;;;;;;;18.67;9.47;;;11.80;99.90;;;;;;5072693;28;20200;-64
2021/10/05 04:37:58;;;;;;;16.67;10.00;;;13.10;99.90;;;;;;5073826;28;20571;-64
2021/10/05 04:40:25;;;;;;;18.03;9.87;;;11.80;99.90;;;;;;5073392;28;20216;-64
2021/10/05 04:42:52;;;;;;;15.87;9.37;;;11.80;99.90;;;;;;5073599;28;20217;-63
2021/10/05 04:45:19;;;;;;;15.53;8.67;;;11.70;99.90;;;;;;5072587;28;20229;-63
2021/10/05 04:47:47;;;;;;;17.37;9.80;;;11.70;99.90;;;;;;5073256;28;20205;-63
2021/10/05 04:50:15;;;;;;;16.03;9.30;;;11.70;99.90;;;;;;5073174;28;20569;-64
2021/10/05 04:52:43;;;;;;;17.50;9.60;;;11.70;99.90;;;;;;5073213;28;20205;-63
2021/10/05 04:55:10;;;;;;;19.17;9.90;;;11.70;99.90;;;;;;5073537;28;20209;-64
2021/10/05 04:57:37;;;;;;;15.40;9.53;;;11.70;99.90;;;;;;5073363;28;20644;-63
2021/10/05 05:00:06;;;;;;;15.77;9.77;;;11.60;99.90;;;;;;5072626;28;20217;-65
2021/10/05 05:02:33;;;;;;;14.47;9.03;;;11.60;99.90;;;;;;5071974;28;20211;-63
2021/10/05 05:05:02;;;;;;;14.87;8.77;;;11.60;99.90;;;;;;5072899;28;20235;-64
2021/10/05 05:07:29;;;;;;;12.87;9.20;;;11.60;99.90;;;;;;5073009;28;20686;-64
2021/10/05 05:09:56;;;;;;;13.53;8.60;;;11.60;99.90;;;;;;5072807;28;20209;-64
2021/10/05 05:12:23;;;;;;;22.13;9.40;;;11.60;99.90;;;;;;5073329;28;20209;-63
2021/10/05 05:14:49;;;;;;;13.93;8.93;;;11.60;99.90;;;;;;5072989;28;20211;-64
2021/10/05 05:17:16;;;;;;;13.93;8.43;;;11.60;99.90;;;;;;5072513;28;20209;-64
2021/10/05 05:19:43;;;;;;;15.20;9.03;;;11.60;99.90;;;;;;5072365;28;20209;-64
2021/10/05 05:22:11;;;;;;;17.77;9.30;;;11.60;99.90;;;;;;5071908;28;20565;-63
2021/10/05 05:24:38;;;;;;;13.37;8.53;;;11.60;99.90;;;;;;5072618;28;20300;-63
2021/10/05 05:27:05;;;;;;;15.73;8.90;;;11.60;99.90;;;;;;5071983;28;20225;-65
2021/10/05 05:29:32;;;;;;;15.30;8.93;;;11.60;99.90;;;;;;5072703;28;20216;-65
2021/10/05 05:31:59;;;;;;;17.60;9.07;;;11.60;99.90;;;;;;5072454;28;20205;-65
2021/10/05 05:34:26;;;;;;;11.90;8.47;;;11.60;99.90;;;;;;5072392;28;20782;-64
2021/10/05 05:36:53;;;;;;;13.93;8.43;;;11.70;99.90;;;;;;5071504;28;20225;-65
2021/10/05 05:39:21;;;;;;;15.27;9.17;;;11.70;99.90;;;;;;5071330;28;20209;-64
2021/10/05 05:41:48;;;;;;;12.63;8.60;;;11.70;99.90;;;;;;5072262;28;20208;-65
2021/10/05 05:44:15;;;;;;;12.67;8.73;;;11.70;99.90;;;;;;5071506;28;20208;-65
2021/10/05 05:46:43;;;;;;;17.80;8.47;;;11.70;99.90;;;;;;5072645;28;20266;-66
2021/10/05 05:49:10;;;;;;;13.80;8.17;;;11.70;99.90;;;;;;5072922;28;20216;-70
2021/10/05 05:51:37;;;;;;;13.23;8.40;;;11.70;99.90;;;;;;5071967;28;20220;-69
2021/10/05 05:54:04;;;;;;;10.47;8.00;;;11.70;99.90;;;;;;5072361;28;20608;-68
2021/10/05 05:56:32;;;;;;;12.57;8.47;;;11.70;99.90;;;;;;5072584;28;20677;-69
2021/10/05 05:59:00;;;;;;;13.00;8.50;;;11.70;99.90;;;;;;5072113;28;20338;-71
2021/10/05 06:01:27;;;;;;;14.40;8.90;;;11.70;99.90;;;;;;5072422;28;20212;-69
2021/10/05 06:03:54;;;;;;;12.60;8.07;;;11.70;99.90;;;;;;5073359;28;20209;-69
2021/10/05 06:06:21;;;;;;;18.57;9.13;;;11.70;99.90;;;;;;5072150;28;20243;-70
2021/10/05 06:08:49;;;;;;;14.47;8.60;;;11.80;99.90;;;;;;5071941;28;20205;-70
2021/10/05 06:11:18;;;;;;;12.10;8.23;;;11.80;99.90;;;;;;5072718;28;20712;-71
2021/10/05 06:13:47;;;;;;;14.47;8.03;;;11.80;99.90;;;;;;5072584;28;20197;-71
2021/10/05 06:16:14;;;;;;;12.87;7.87;;;11.80;99.90;;;;;;5072879;28;20577;-70
2021/10/05 06:18:41;;;;;;;11.40;7.77;;;11.90;99.90;;;;;;5072684;28;20295;-71
2021/10/05 06:21:09;;;;;;;13.73;7.77;;;12.00;99.90;;;;;;5072460;28;20204;-70
2021/10/05 06:23:37;;;;;;;17.17;8.20;;;12.10;99.90;;;;;;5066551;28;20213;-68
2021/10/05 06:26:04;;;;;;;15.77;8.77;;;12.20;99.90;;;;;;5071754;28;20239;-69
2021/10/05 06:28:31;;;;;;;12.37;7.90;;;12.30;99.90;;;;;;5073113;28;20211;-70
2021/10/05 06:31:00;;;;;;;15.03;7.97;;;12.40;99.90;;;;;;5071965;28;20729;-68
2021/10/05 06:33:27;;;;;;;13.60;7.83;;;12.50;99.90;;;;;;5072038;28;20698;-68
2021/10/05 06:35:54;;;;;;;17.07;8.37;;;12.70;99.90;;;;;;5071758;28;20218;-69
2021/10/05 06:38:21;;;;;;;15.50;7.73;;;12.80;99.90;;;;;;5073198;28;20235;-71
2021/10/05 06:40:49;;;;;;;16.53;8.50;;;12.90;99.90;;;;;;5073033;28;20332;-72
2021/10/05 06:43:16;;;;;;;15.53;7.30;;;13.00;99.90;;;;;;5073433;28;20305;-70
2021/10/05 06:45:43;;;;;;;15.07;7.77;;;13.10;99.90;;;;;;5073446;28;20251;-70
2021/10/05 06:48:12;;;;;;;15.87;8.03;;;13.10;99.90;;;;;;5072700;28;20207;-69
2021/10/05 06:50:38;;;;;;;13.00;7.47;;;13.20;99.90;;;;;;5072055;28;20205;-70
2021/10/05 06:53:06;;;;;;;13.97;7.80;;;13.40;99.90;;;;;;5073827;28;20241;-70
2021/10/05 06:55:33;;;;;;;16.23;7.80;;;13.50;99.90;;;;;;5073952;28;20239;-72
2021/10/05 06:58:01;;;;;;;13.80;7.00;;;13.70;99.90;;;;;;5072684;28;20543;-70
2021/10/05 07:00:28;;;;;;;15.67;7.70;;;13.80;99.90;;;;;;5072437;28;20663;-66
2021/10/05 07:02:55;;;;;;;14.00;7.30;;;14.00;99.90;;;;;;5070533;28;20284;-71
2021/10/05 07:05:23;;;;;;;13.93;7.60;;;14.30;99.90;;;;;;5072822;28;20201;-69
2021/10/05 07:07:52;;;;;;;11.13;7.00;;;14.50;99.90;;;;;;5072372;28;20354;-71
2021/10/05 07:10:21;;;;;;;15.47;8.40;;;14.80;99.90;;;;;;5072427;28;20209;-69
2021/10/05 07:12:49;;;;;;;14.03;7.73;;;14.90;99.90;;;;;;5071769;28;20637;-68
2021/10/05 07:15:16;;;;;;;13.40;7.83;;;14.90;99.90;;;;;;5071443;28;20646;-70
2021/10/05 07:17:44;;;;;;;10.73;7.60;;;14.70;99.90;;;;;;5071513;28;20233;-69
2021/10/05 07:20:12;;;;;;;11.60;7.27;;;14.70;99.90;;;;;;5066948;28;20628;-68
2021/10/05 07:22:40;;;;;;;16.83;8.17;;;14.50;99.90;;;;;;5070783;28;20687;-68
2021/10/05 07:25:08;;;;;;;12.00;7.63;;;14.40;99.90;;;;;;5070694;28;20247;-65
2021/10/05 07:27:35;;;;;;;10.87;7.70;;;14.40;99.90;;;;;;5071262;28;20322;-68
2021/10/05 07:30:03;;;;;;;13.93;7.53;;;14.40;99.90;;;;;;5071402;28;20908;-69
2021/10/05 07:32:31;;;;;;;12.70;7.40;;;14.50;99.90;;;;;;5067830;28;20681;-68
2021/10/05 07:34:58;;;;;;;9.87;7.07;;;14.70;99.90;;;;;;5069293;28;20268;-71
2021/10/05 07:37:25;;;;;;;12.00;7.20;;;14.90;99.90;;;;;;5069347;28;20237;-71
2021/10/05 07:39:53;;;;;;;13.27;8.10;;;15.20;99.90;;;;;;5066999;28;20201;-67
2021/10/05 07:42:21;;;;;;;11.80;7.90;;;15.30;99.90;;;;;;5070081;28;20196;-70
2021/10/05 07:44:49;;;;;;;15.30;7.83;;;15.40;99.90;;;;;;5070780;28;20568;-69
2021/10/05 07:47:16;;;;;;;14.33;7.00;;;15.60;99.90;;;;;;5074478;28;20223;-69
2021/10/05 07:49:43;;;;;;;12.30;7.87;;;15.80;99.90;;;;;;5075687;28;20291;-69
2021/10/05 07:52:10;;;;;;;10.00;7.80;;;15.90;99.90;;;;;;5074635;28;20212;-69
2021/10/05 07:54:37;;;;;;;13.20;7.70;;;16.00;99.90;;;;;;5074640;28;20280;-69
2021/10/05 07:57:07;;;;;;;11.93;7.30;;;16.20;99.90;;;;;;5074162;28;20733;-68
2021/10/05 07:59:34;;;;;;;13.33;7.70;;;16.30;99.90;;;;;;5073257;28;20243;-68
2021/10/05 08:02:01;;;;;;;11.30;7.20;;;16.40;99.90;;;;;;5074271;28;20255;-69
2021/10/05 08:04:28;;;;;;;18.40;8.30;;;16.50;99.90;;;;;;5074209;28;20201;-68
2021/10/05 08:06:55;;;;;;;12.07;7.30;;;16.60;99.90;;;;;;5074722;28;20221;-68
2021/10/05 08:09:22;;;;;;;11.03;7.90;;;16.80;99.90;;;;;;5074613;28;20209;-68
2021/10/05 08:11:49;;;;;;;10.13;7.43;;;17.00;99.90;;;;;;5072353;28;20941;-70
2021/10/05 08:14:18;;;;;;;11.33;7.90;;;17.30;99.90;;;;;;5072196;28;20221;-68
2021/10/05 08:16:46;;;;;;;9.27;7.10;;;17.40;99.90;;;;;;5073169;28;20651;-68
2021/10/05 08:19:14;;;;;;;12.13;6.83;;;17.60;99.90;;;;;;5074045;28;20217;-69
2021/10/05 08:21:41;;;;;;;11.03;6.87;;;17.70;99.90;;;;;;5073739;28;20201;-70
2021/10/05 08:24:09;;;;;;;10.65;7.15;;;17.90;99.90;;;;;;5074598;28;20617;-69
2021/10/05 08:26:36;;;;;;;11.00;6.97;;;17.90;99.90;;;;;;5071782;28;20232;-69
2021/10/05 08:29:03;;;;;;;11.00;7.53;;;18.10;99.90;;;;;;5073890;28;20209;-69
2021/10/05 08:31:32;;;;;;;14.73;7.23;;;18.20;99.90;;;;;;5073525;28;20255;-69
2021/10/05 08:34:00;;;;;;;8.48;6.60;;;18.30;99.90;;;;;;5072916;28;20237;-70
2021/10/05 08:36:27;;;;;;;7.80;6.30;;;18.50;99.90;;;;;;5073094;28;20256;-71
2021/10/05 08:38:54;;;;;;;11.27;6.75;;;18.50;99.90;;;;;;5070644;28;20217;-71
2021/10/05 08:41:22;;;;;;;12.88;6.80;;;18.60;99.90;;;;;;5073775;28;20220;-70
2021/10/05 08:43:50;;;;;;;14.15;6.80;;;18.70;99.90;;;;;;5073738;28;20213;-71
2021/10/05 08:46:18;;;;;;;11.00;6.55;;;18.80;99.90;;;;;;5073073;28;20229;-71
2021/10/05 08:48:47;;;;;;;11.52;6.80;;;18.80;99.90;;;;;;5074004;28;20225;-71
2021/10/05 08:51:14;;;;;;;9.70;6.55;;;18.90;99.90;;;;;;5073894;28;20627;-71
2021/10/05 08:53:41;;;;;;;12.32;6.95;;;19.20;99.90;;;;;;5070271;28;20202;-69
2021/10/05 08:56:09;;;;;;;13.32;7.00;;;19.60;99.90;;;;;;5072133;28;20212;-70
2021/10/05 08:58:38;;;;;;;11.07;7.20;;;20.60;99.90;;;;;;5073437;28;20795;-70
2021/10/05 09:01:10;;;;;;;13.13;6.90;;;22.80;95.60;;;;;;5074217;28;20217;-72
2021/10/05 09:03:38;;;;;;;13.85;6.40;;;25.30;86.90;;;;;;5073322;28;20208;-70
2021/10/05 09:06:13;;;;;;;9.05;5.55;;;27.60;71.50;;;;;;5074042;28;20220;-72
2021/10/05 09:08:41;;;;;;;12.73;7.55;;;29.50;58.90;;;;;;5061694;28;20430;-70
2021/10/05 09:11:10;;;;;;;8.77;6.60;;;30.60;54.20;;;;;;5073340;28;20213;-72
2021/10/05 09:13:39;;;;;;;10.15;5.53;;;32.00;49.80;;;;;;5071592;28;20631;-71
2021/10/05 09:16:18;;;;;;;9.15;5.97;;;33.30;46.80;;;;;;5072538;28;20767;-70
2021/10/05 09:18:56;;;;;;;9.77;5.68;;;34.30;43.90;;;;;;5071171;28;20560;-70
2021/10/05 09:21:26;;;;;;;10.00;5.82;;;34.80;42.20;;;;;;5070408;28;20216;-71
2021/10/05 09:23:55;;;;;;;9.30;5.70;;;35.20;41.10;;;;;;5062214;28;20628;-70
2021/10/05 09:26:33;;;;;;;9.13;5.90;;;35.70;40.60;;;;;;5070441;28;20724;-70
2021/10/05 09:29:09;;;;;;;7.75;5.63;;;36.20;39.10;;;;;;5067428;28;20292;-68
2021/10/05 09:31:50;;;;;;;10.38;5.75;;;37.00;37.90;;;;;;5071305;28;20288;-70
2021/10/05 09:34:18;;;;;;;11.85;5.30;;;37.70;37.40;;;;;;5073649;28;20243;-68
2021/10/05 09:36:46;;;;;;;8.25;5.53;;;38.40;36.10;;;;;;5072930;28;20300;-69
2021/10/05 09:39:13;;;;;;;10.02;5.75;;;38.80;34.40;;;;;;5068863;28;20296;-67
2021/10/05 09:41:39;;;;;;;10.27;5.80;;;38.70;34.10;;;;;;5073632;28;20318;-67
2021/10/05 09:44:09;;;;;;;8.00;5.55;;;38.60;34.10;;;;;;5073865;28;20213;-66
2021/10/05 09:46:36;;;;;;;7.68;5.70;;;38.40;33.90;;;;;;5073032;28;20240;-66
2021/10/05 09:49:06;;;;;;;6.53;5.32;;;38.50;34.30;;;;;;5073351;28;20214;-65
2021/10/05 09:51:34;;;;;;;7.50;5.43;;;39.00;33.60;;;;;;5073004;28;20209;-66
2021/10/05 09:54:02;;;;;;;8.88;5.97;;;38.90;33.00;;;;;;5069833;28;20209;-66
2021/10/05 09:56:30;;;;;;;7.32;5.63;;;38.50;34.00;;;;;;5072452;28;20216;-66
2021/10/05 09:58:58;;;;;;;8.02;5.78;;;38.60;33.90;;;;;;5072197;28;20508;-66
2021/10/05 10:01:27;;;;;;;10.48;5.72;;;38.70;34.20;;;;;;5071934;28;20205;-71
2021/10/05 10:03:55;;;;;;;9.35;5.63;;;38.60;33.10;;;;;;5069506;28;20205;-71
2021/10/05 10:06:22;;;;;;;9.15;6.30;;;38.50;33.10;;;;;;5071333;28;20229;-70
2021/10/05 10:08:50;;;;;;;9.65;5.93;;;38.80;33.10;;;;;;5070788;28;20288;-71
2021/10/05 10:11:19;;;;;;;11.32;6.05;;;38.90;32.60;;;;;;5072896;28;20697;-70
2021/10/05 10:13:48;;;;;;;7.93;5.40;;;39.30;32.70;;;;;;5071101;28;20296;-70
2021/10/05 10:16:15;;;;;;;9.57;5.45;;;39.70;31.80;;;;;;5072781;28;20642;-69
2021/10/05 10:18:54;;;;;;;12.60;5.85;;;39.40;31.90;;;;;;5071666;28;20292;-70
2021/10/05 10:21:27;;;;;;;9.90;5.68;;;39.30;32.00;;;;;;5072012;28;20201;-70
2021/10/05 10:24:08;;;;;;;8.65;5.97;;;39.10;31.80;;;;;;5071287;28;20205;-69
2021/10/05 10:26:41;;;;;;;11.10;6.57;;;39.40;32.20;;;;;;5061874;28;20284;-69
2021/10/05 10:29:08;;;;;;;10.20;5.88;;;39.60;31.60;;;;;;5072005;28;20209;-70
2021/10/05 10:31:38;;;;;;;8.77;5.63;;;39.50;31.50;;;;;;5071472;28;20216;-69
2021/10/05 10:34:06;;;;;;;11.35;6.00;;;40.10;31.60;;;;;;5061476;28;20251;-68
2021/10/05 10:36:36;;;;;;;7.00;5.78;;;40.20;30.90;;;;;;5070272;28;20517;-68
2021/10/05 10:39:06;;;;;;;10.05;6.22;;;40.10;30.70;;;;;;5071921;28;20735;-68
2021/10/05 10:41:34;;;;;;;10.55;5.82;;;40.20;31.20;;;;;;5071985;28;20209;-69
2021/10/05 10:44:05;;;;;;;8.77;5.85;;;40.60;30.70;;;;;;5072563;28;20205;-68
2021/10/05 10:46:34;;;;;;;9.43;5.78;;;40.50;30.60;;;;;;5071610;28;20217;-68
2021/10/05 10:49:03;;;;;;;9.18;6.30;;;40.30;31.60;;;;;;5071057;28;20209;-68
2021/10/05 10:51:35;;;;;;;9.02;6.13;;;40.60;31.20;;;;;;5078389;28;20301;-68
2021/10/05 10:54:12;;;;;;;10.93;6.00;;;40.90;30.40;;;;;;5072113;28;20205;-68
2021/10/05 10:56:40;;;;;;;9.43;5.93;;;41.20;30.20;;;;;;5065969;28;20240;-67
2021/10/05 10:59:11;;;;;;;12.35;5.55;;;41.50;29.90;;;;;;5072608;28;20612;-70
2021/10/05 11:01:41;;;;;;;8.82;5.20;;;41.90;30.00;;;;;;5071420;28;20197;-67
2021/10/05 11:04:09;;;;;;;14.77;6.53;;;42.00;29.50;;;;;;5067938;28;20209;-70
2021/10/05 11:06:36;;;;;;;9.52;5.90;;;41.70;29.50;;;;;;5065728;28;20212;-68
2021/10/05 11:09:05;;;;;;;9.18;5.78;;;40.90;30.00;;;;;;5071597;28;20641;-67
2021/10/05 11:11:36;;;;;;;9.02;5.53;;;40.10;30.90;;;;;;5071908;28;20286;-67
2021/10/05 11:14:05;;;;;;;7.82;5.75;;;39.40;32.20;;;;;;5071836;28;20666;-66
2021/10/05 11:16:35;;;;;;;7.70;5.57;;;40.00;32.10;;;;;;5070829;28;20197;-68
2021/10/05 11:19:07;;;;;;;8.18;6.00;;;40.80;30.90;;;;;;5071810;28;20223;-68
2021/10/05 11:21:36;;;;;;;11.88;5.63;;;41.70;30.90;;;;;;5069189;28;20307;-67
2021/10/05 11:24:03;;;;;;;9.15;5.53;;;42.40;29.80;;;;;;5071605;28;20598;-68
2021/10/05 11:26:36;;;;;;;9.88;5.93;;;42.80;29.20;;;;;;5070824;28;20296;-67
2021/10/05 11:29:03;;;;;;;12.98;5.70;;;42.90;29.00;;;;;;5070787;28;20231;-67
2021/10/05 11:31:42;;;;;;;11.13;5.82;;;43.30;29.10;;;;;;5070163;28;20305;-67
2021/10/05 11:34:09;;;;;;;9.25;5.15;;;44.00;28.40;;;;;;5071261;28;20247;-68
2021/10/05 11:36:37;;;;;;;6.43;5.28;;;44.10;28.30;;;;;;5069940;28;20237;-68
2021/10/05 11:39:05;;;;;;;11.38;5.57;;;43.80;28.10;;;;;;5070926;28;20215;-70
2021/10/05 11:41:39;;;;;;;9.43;5.22;;;43.30;28.80;;;;;;5071202;28;20201;-74
2021/10/05 11:44:17;;;;;;;12.48;5.38;;;43.30;28.80;;;;;;5072076;28;20201;-68
2021/10/05 11:47:01;;;;;;;10.05;5.65;;;43.10;28.60;;;;;;5070444;28;20217;-68
2021/10/05 11:49:29;;;;;;;8.52;5.80;;;42.50;28.80;;;;;;5070686;28;20200;-68
2021/10/05 11:51:56;;;;;;;11.10;5.80;;;41.80;29.30;;;;;;5071188;28;20573;-68
2021/10/05 11:54:26;;;;;;;8.23;5.53;;;41.30;29.50;;;;;;5071311;28;20423;-67
2021/10/05 11:56:54;;;;;;;10.82;5.38;;;40.70;30.00;;;;;;5069994;28;20209;-66
2021/10/05 11:59:29;;;;;;;10.10;5.80;;;40.40;30.40;;;;;;5071172;28;20717;-68
2021/10/05 12:02:04;;;;;;;9.88;5.72;;;39.90;31.00;;;;;;5071647;28;20284;-67
2021/10/05 12:04:32;;;;;;;8.60;5.72;;;39.50;31.30;;;;;;5070848;28;20300;-68
2021/10/05 12:07:02;;;;;;;9.52;5.55;;;39.20;31.50;;;;;;5070998;28;20240;-67
2021/10/05 12:09:30;;;;;;;8.95;5.38;;;39.10;31.70;;;;;;5066868;28;20208;-68
2021/10/05 12:12:03;;;;;;;7.93;6.05;;;39.00;31.80;;;;;;5071830;28;20259;-66
2021/10/05 12:14:33;;;;;;;11.00;6.07;;;38.70;31.70;;;;;;5070843;28;20729;-66
2021/10/05 12:17:04;;;;;;;10.05;5.40;;;38.30;32.60;;;;;;5059400;28;20216;-68
2021/10/05 12:19:33;;;;;;;11.02;5.57;;;38.20;32.40;;;;;;5069758;28;20228;-67
2021/10/05 12:22:01;;;;;;;11.10;5.78;;;38.20;32.50;;;;;;5071253;28;20209;-67
2021/10/05 12:24:42;;;;;;;8.25;5.57;;;38.20;32.90;;;;;;5066461;28;20217;-68
2021/10/05 12:27:09;;;;;;;7.95;5.97;;;38.80;32.80;;;;;;5067386;28;20205;-69
2021/10/05 12:29:50;;;;;;;7.15;5.65;;;39.10;32.00;;;;;;5072979;28;20207;-67
2021/10/05 12:32:18;;;;;;;7.20;5.95;;;39.70;31.50;;;;;;5072540;28;20205;-67
2021/10/05 12:34:50;;;;;;;8.38;5.85;;;40.10;31.30;;;;;;5059827;28;20681;-66
2021/10/05 12:37:19;;;;;;;6.85;5.80;;;40.20;30.90;;;;;;5065160;28;20221;-67
2021/10/05 12:40:01;;;;;;;7.30;5.47;;;40.60;30.50;;;;;;5074201;28;20629;-66